Terminal Aerodrome Forecast
Issued by NWS

Home | Current Version | Previous Version | Text Only | Print | Product List | Glossary On
Versions: 1 2 3 4 5 6 7 8 9 10 11 12 13 14 15
715
FTUS43 KBIS 230528
TAFDIK
TAF
KDIK 230528Z 2306/2406 35010KT P6SM SCT110
     FM231900 03014KT P6SM FEW150
     FM240100 VRB05KT P6SM SCT200=

USA.gov is the U.S. government's official web portal to all federal, state and local government web resources and services.